Portada
METAR-TAF:

METAR-TAF

Aeroports :

Cascais, Portugal

latitud: 38-43-32N, longitud: 009-21-19W, altitud: 99 m

Observació

L'informe es va fer fa 15 minuts, a les 12:30 UTC
Vent 8 kt del Nord/Nord-Est, variant entre Nord i Est/Nord-Est
Temperatura 13°C
Humitat 72%
Pressió 1017 hPa
Visibilitat 10 km o més
Escasses núvols a una alçada de 1800 ft

METAR: LPCS 251230Z 03008KT 350V060 9999 FEW018 13/08 Q1017

Hora: 12:45 (12:45 UTC)

Pronòstic

L'informe es va fer fa 1 hora i 45 minuts, a les 11:00 UTC
Pronòstic vàlid del 25 a les 12 UTC al 25 a les 21 UTC
Vent 7 kt del Nord/Nord-Est
Visibilitat 10 km o més
Núvols disperses a una alçada de 1500 ft
Evolucionant progressivament
l' 25 a les 12 UTC al 25 a les 14 UTC
Vent 10 kt del Nord
Núvols disperses a una alçada de 2500 ft
Evolucionant progressivament
l' 25 a les 15 UTC al 25 a les 18 UTC
Escasses núvols a una alçada de 1500 ft

TAF: LPCS 251100Z 2512/2521 03007KT 9999 SCT015 BECMG 2512/2514 35010KT SCT025 BECMG 2515/2518 FEW015

Observacions i pronòstics meteorològics de més de 4000 aeroports (METAR i TAF).

Les estacions disponibles són els punts grocs i vermells al mapa.

Posi el ratolí al punt desitjat per veure el nom de l'estació.

Feu clic per veure les observacions i els pronòstics meteorològics.

Per canviar el mapa: feu clic els botons verds amb una creu de color negre per apropar; al botó verd amb un guió per allunyar la imatge; o en les fletxes verdes per a mapes adjacents.


METAR-TAF: